createdAt,value
2023-04-28T00:00:25.923Z,445.00
2023-04-28T00:01:25.919Z,446.00
2023-04-28T00:02:26.013Z,444.00
2023-04-28T00:03:26.137Z,443.00
2023-04-28T00:04:26.461Z,441.00
2023-04-28T00:05:26.151Z,442.00
2023-04-28T00:06:26.196Z,442.00
2023-04-28T00:07:26.253Z,443.00
2023-04-28T00:08:26.277Z,446.00
2023-04-28T00:09:26.324Z,448.00
2023-04-28T00:10:26.420Z,449.00
2023-04-28T00:11:26.454Z,448.00
2023-04-28T00:12:26.503Z,449.00
2023-04-28T00:13:26.589Z,451.00
2023-04-28T00:14:26.596Z,449.00
2023-04-28T00:15:26.678Z,449.00
2023-04-28T00:16:26.795Z,447.00
2023-04-28T00:17:26.894Z,442.00
2023-04-28T00:18:26.851Z,443.00
2023-04-28T00:19:26.897Z,441.00
2023-04-28T00:20:26.931Z,440.00
2023-04-28T00:21:27.009Z,442.00
2023-04-28T00:22:27.032Z,443.00
2023-04-28T00:23:27.101Z,444.00
2023-04-28T00:24:27.359Z,445.00
2023-04-28T00:25:27.206Z,445.00
2023-04-28T00:26:27.298Z,445.00
2023-04-28T00:27:27.330Z,448.00
2023-04-28T00:28:34.129Z,447.00
2023-04-28T00:29:28.380Z,450.00
2023-04-28T00:30:27.382Z,450.00
2023-04-28T00:31:27.382Z,447.00
2023-04-28T00:32:27.368Z,446.00
2023-04-28T00:33:27.335Z,448.00
2023-04-28T00:34:27.355Z,447.00
2023-04-28T00:35:27.353Z,446.00
2023-04-28T00:36:27.360Z,444.00
2023-04-28T00:37:27.353Z,443.00
2023-04-28T00:38:27.416Z,443.00
2023-04-28T00:39:27.477Z,447.00
2023-04-28T00:40:27.512Z,447.00
2023-04-28T00:41:27.592Z,446.00
2023-04-28T00:42:27.636Z,443.00
2023-04-28T00:43:27.680Z,447.00
2023-04-28T00:44:27.752Z,445.00
2023-04-28T00:45:27.827Z,445.00
2023-04-28T00:46:27.905Z,447.00
2023-04-28T00:47:28.022Z,444.00
2023-04-28T00:48:27.999Z,443.00
2023-04-28T00:49:28.070Z,442.00
2023-04-28T00:50:28.112Z,440.00
2023-04-28T00:51:28.203Z,440.00
2023-04-28T00:52:28.256Z,441.00
2023-04-28T00:53:28.293Z,442.00
2023-04-28T00:54:28.399Z,444.00
2023-04-28T00:55:28.414Z,446.00
2023-04-28T00:56:28.510Z,447.00
2023-04-28T00:57:28.570Z,447.00
2023-04-28T00:58:28.629Z,447.00
2023-04-28T00:59:28.680Z,448.00
2023-04-28T01:00:28.749Z,449.00
2023-04-28T01:01:28.839Z,445.00
2023-04-28T01:02:28.966Z,443.00
2023-04-28T01:03:29.106Z,444.00
2023-04-28T01:04:29.189Z,445.00
2023-04-28T01:05:29.036Z,443.00
2023-04-28T01:06:29.075Z,446.00
2023-04-28T01:07:29.176Z,447.00
2023-04-28T01:08:29.225Z,448.00
2023-04-28T01:09:29.273Z,452.00
2023-04-28T01:10:29.332Z,453.00
2023-04-28T01:11:29.368Z,450.00
2023-04-28T01:12:29.374Z,446.00
2023-04-28T01:13:29.389Z,444.00
2023-04-28T01:14:29.388Z,443.00
2023-04-28T01:15:29.422Z,444.00
2023-04-28T01:16:29.457Z,443.00
2023-04-28T01:17:29.558Z,444.00
2023-04-28T01:18:29.462Z,446.00
2023-04-28T01:19:29.442Z,444.00
2023-04-28T01:20:29.484Z,444.00
2023-04-28T01:21:29.446Z,445.00
2023-04-28T01:22:29.483Z,445.00
2023-04-28T01:23:29.449Z,446.00
2023-04-28T01:24:29.433Z,445.00
2023-04-28T01:25:29.420Z,442.00
2023-04-28T01:26:29.480Z,440.00
2023-04-28T01:27:29.420Z,440.00
2023-04-28T01:28:29.433Z,443.00
2023-04-28T01:29:29.414Z,445.00
2023-04-28T01:30:29.442Z,444.00
2023-04-28T01:31:29.494Z,442.00
2023-04-28T01:32:29.634Z,442.00
2023-04-28T01:33:29.431Z,441.00
2023-04-28T01:34:29.419Z,443.00
2023-04-28T01:35:29.436Z,444.00
2023-04-28T01:36:29.436Z,443.00
2023-04-28T01:37:29.408Z,442.00
2023-04-28T01:38:29.389Z,444.00
2023-04-28T01:39:29.412Z,444.00
2023-04-28T01:40:29.417Z,444.00
2023-04-28T01:41:29.395Z,444.00
2023-04-28T01:42:29.411Z,442.00
2023-04-28T01:43:29.377Z,441.00
2023-04-28T01:44:29.382Z,440.00
2023-04-28T01:45:29.368Z,439.00
2023-04-28T01:46:29.414Z,438.00
2023-04-28T01:47:29.397Z,439.00
2023-04-28T01:48:29.348Z,438.00
2023-04-28T01:49:29.349Z,436.00
2023-04-28T01:50:29.385Z,438.00
2023-04-28T01:51:29.352Z,436.00
2023-04-28T01:52:29.384Z,437.00
2023-04-28T01:53:29.365Z,439.00
2023-04-28T01:54:29.348Z,440.00
2023-04-28T01:55:29.363Z,441.00
2023-04-28T01:56:29.353Z,442.00
2023-04-28T01:57:29.351Z,438.00
2023-04-28T01:58:29.326Z,438.00
2023-04-28T01:59:29.355Z,438.00
2023-04-28T02:00:29.347Z,439.00
2023-04-28T02:01:29.380Z,442.00
2023-04-28T02:02:29.486Z,445.00
2023-04-28T02:03:29.607Z,443.00
2023-04-28T02:04:29.437Z,443.00
2023-04-28T02:05:29.361Z,441.00
2023-04-28T02:06:29.388Z,440.00
2023-04-28T02:07:29.363Z,444.00
2023-04-28T02:08:29.354Z,443.00
2023-04-28T02:09:29.357Z,441.00
2023-04-28T02:10:29.359Z,440.00
2023-04-28T02:11:29.350Z,442.00
2023-04-28T02:12:29.342Z,444.00
2023-04-28T02:13:29.383Z,444.00
2023-04-28T02:14:29.381Z,444.00
2023-04-28T02:15:29.397Z,444.00
2023-04-28T02:16:29.413Z,441.00
2023-04-28T02:17:29.405Z,440.00
2023-04-28T02:18:29.419Z,440.00
2023-04-28T02:19:29.417Z,439.00
2023-04-28T02:20:30.752Z,442.00
2023-04-28T02:21:29.456Z,439.00
2023-04-28T02:22:29.436Z,440.00
2023-04-28T02:23:29.448Z,440.00
2023-04-28T02:24:29.459Z,436.00
2023-04-28T02:25:29.472Z,435.00
2023-04-28T02:26:29.460Z,435.00
2023-04-28T02:27:29.511Z,435.00
2023-04-28T02:28:29.518Z,436.00
2023-04-28T02:29:29.540Z,435.00
2023-04-28T02:30:29.569Z,438.00
2023-04-28T02:31:29.611Z,441.00
2023-04-28T02:32:29.649Z,440.00
2023-04-28T02:33:29.597Z,440.00
2023-04-28T02:34:29.603Z,439.00
2023-04-28T02:35:29.623Z,437.00
2023-04-28T02:36:29.692Z,434.00
2023-04-28T02:37:29.666Z,435.00
2023-04-28T02:38:29.634Z,433.00
2023-04-28T02:39:29.671Z,436.00
2023-04-28T02:40:29.676Z,437.00
2023-04-28T02:41:29.708Z,441.00
2023-04-28T02:42:29.713Z,440.00
2023-04-28T02:43:29.739Z,441.00
2023-04-28T02:44:29.704Z,441.00
2023-04-28T02:45:29.744Z,441.00
2023-04-28T02:46:29.772Z,441.00
2023-04-28T02:47:29.794Z,444.00
2023-04-28T02:48:29.792Z,444.00
2023-04-28T02:49:29.794Z,444.00
2023-04-28T02:50:29.784Z,445.00
2023-04-28T02:51:29.814Z,444.00
2023-04-28T02:52:29.824Z,447.00
2023-04-28T02:53:29.838Z,444.00
2023-04-28T02:54:29.881Z,445.00
2023-04-28T02:55:29.861Z,441.00
2023-04-28T02:56:29.882Z,441.00
2023-04-28T02:57:29.885Z,440.00
2023-04-28T02:58:29.877Z,441.00
2023-04-28T02:59:29.877Z,439.00
2023-04-28T03:00:29.886Z,441.00
2023-04-28T03:01:29.913Z,443.00
2023-04-28T03:02:29.958Z,446.00
2023-04-28T03:03:29.989Z,447.00
2023-04-28T03:04:30.094Z,449.00
2023-04-28T03:05:29.917Z,450.00
2023-04-28T03:06:29.939Z,448.00
2023-04-28T03:07:29.961Z,448.00
2023-04-28T03:08:29.960Z,446.00
2023-04-28T03:09:29.981Z,447.00
2023-04-28T03:10:29.993Z,449.00
2023-04-28T03:11:29.997Z,450.00
2023-04-28T03:12:29.995Z,450.00
2023-04-28T03:13:30.060Z,449.00
2023-04-28T03:14:30.033Z,449.00
2023-04-28T03:15:30.056Z,449.00
2023-04-28T03:16:30.091Z,450.00
2023-04-28T03:17:30.132Z,450.00
2023-04-28T03:18:30.060Z,444.00
2023-04-28T03:19:30.048Z,446.00
2023-04-28T03:20:30.083Z,443.00
2023-04-28T03:21:30.072Z,444.00
2023-04-28T03:22:30.094Z,442.00
2023-04-28T03:23:30.070Z,442.00
2023-04-28T03:24:30.094Z,443.00
2023-04-28T03:25:30.084Z,445.00
2023-04-28T03:26:30.070Z,447.00
2023-04-28T03:27:30.089Z,447.00
2023-04-28T03:28:30.086Z,443.00
2023-04-28T03:29:30.121Z,443.00
2023-04-28T03:30:30.124Z,444.00
2023-04-28T03:31:30.154Z,446.00
2023-04-28T03:32:30.196Z,446.00
2023-04-28T03:33:30.170Z,446.00
2023-04-28T03:34:30.186Z,448.00
2023-04-28T03:35:30.210Z,447.00
2023-04-28T03:36:30.257Z,449.00
2023-04-28T03:37:30.222Z,452.00
2023-04-28T03:38:30.253Z,456.00
2023-04-28T03:39:30.290Z,455.00
2023-04-28T03:40:30.254Z,454.00
2023-04-28T03:41:30.292Z,454.00
2023-04-28T03:42:30.340Z,453.00
2023-04-28T03:43:30.328Z,452.00
2023-04-28T03:44:30.351Z,452.00
2023-04-28T03:45:30.359Z,453.00
2023-04-28T03:46:30.452Z,456.00
2023-04-28T03:47:30.377Z,454.00
2023-04-28T03:48:30.460Z,453.00
2023-04-28T03:49:30.435Z,452.00
2023-04-28T03:50:30.469Z,452.00
2023-04-28T03:51:30.472Z,450.00
2023-04-28T03:52:30.496Z,450.00
2023-04-28T03:53:30.545Z,447.00
2023-04-28T03:54:30.553Z,450.00
2023-04-28T03:55:30.563Z,448.00
2023-04-28T03:56:30.600Z,448.00
2023-04-28T03:57:30.627Z,449.00
2023-04-28T03:58:30.651Z,448.00
2023-04-28T03:59:30.647Z,449.00
2023-04-28T04:00:30.693Z,449.00
2023-04-28T04:01:30.690Z,451.00
2023-04-28T04:02:30.792Z,450.00
2023-04-28T04:03:30.998Z,451.00
2023-04-28T04:04:31.010Z,452.00
2023-04-28T04:05:30.831Z,452.00
2023-04-28T04:06:30.805Z,451.00
2023-04-28T04:07:30.844Z,451.00
2023-04-28T04:08:30.829Z,452.00
2023-04-28T04:09:30.864Z,449.00
2023-04-28T04:10:30.904Z,451.00
2023-04-28T04:11:30.920Z,451.00
2023-04-28T04:12:30.951Z,451.00
2023-04-28T04:13:30.948Z,452.00
2023-04-28T04:14:30.963Z,453.00
2023-04-28T04:15:30.987Z,453.00
2023-04-28T04:16:31.130Z,451.00
2023-04-28T04:17:31.059Z,451.00
2023-04-28T04:18:31.057Z,448.00
2023-04-28T04:19:31.095Z,446.00
2023-04-28T04:20:31.128Z,445.00
2023-04-28T04:21:31.144Z,448.00
2023-04-28T04:22:31.125Z,448.00
2023-04-28T04:23:31.158Z,451.00
2023-04-28T04:24:31.200Z,451.00
2023-04-28T04:25:31.203Z,453.00
2023-04-28T04:26:31.237Z,453.00
2023-04-28T04:27:31.289Z,452.00
2023-04-28T04:28:31.275Z,458.00
2023-04-28T04:29:31.371Z,456.00
2023-04-28T04:30:31.316Z,454.00
2023-04-28T04:31:31.365Z,457.00
2023-04-28T04:32:31.454Z,455.00
2023-04-28T04:33:31.428Z,454.00
2023-04-28T04:34:31.459Z,457.00
2023-04-28T04:35:31.547Z,456.00
2023-04-28T04:36:31.514Z,456.00
2023-04-28T04:37:31.582Z,455.00
2023-04-28T04:38:31.597Z,457.00
2023-04-28T04:39:31.614Z,456.00
2023-04-28T04:40:31.671Z,456.00
2023-04-28T04:41:31.694Z,456.00
2023-04-28T04:42:31.745Z,454.00
2023-04-28T04:43:31.768Z,454.00
2023-04-28T04:44:31.786Z,455.00
2023-04-28T04:45:31.824Z,455.00
2023-04-28T04:46:31.909Z,454.00
2023-04-28T04:47:31.953Z,454.00
2023-04-28T04:48:31.954Z,456.00
2023-04-28T04:49:31.992Z,455.00
2023-04-28T04:50:32.042Z,455.00
2023-04-28T04:51:32.083Z,453.00
2023-04-28T04:52:32.121Z,451.00
2023-04-28T04:53:32.148Z,453.00
2023-04-28T04:54:32.218Z,452.00
2023-04-28T04:55:32.212Z,452.00
2023-04-28T04:56:32.268Z,452.00
2023-04-28T04:57:32.330Z,453.00
2023-04-28T04:58:32.362Z,453.00
2023-04-28T04:59:32.380Z,453.00
2023-04-28T05:00:32.455Z,453.00
2023-04-28T05:01:32.533Z,453.00
2023-04-28T05:02:32.601Z,451.00
2023-04-28T05:03:32.784Z,451.00
2023-04-28T05:04:32.893Z,454.00
2023-04-28T05:05:32.834Z,452.00
2023-04-28T05:06:32.742Z,452.00
2023-04-28T05:07:32.763Z,455.00
2023-04-28T05:08:32.802Z,455.00
2023-04-28T05:09:32.868Z,457.00
2023-04-28T05:10:32.940Z,457.00
2023-04-28T05:11:32.928Z,455.00
2023-04-28T05:12:32.982Z,454.00
2023-04-28T05:13:33.011Z,457.00
2023-04-28T05:14:33.028Z,459.00
2023-04-28T05:15:33.097Z,459.00
2023-04-28T05:16:33.155Z,460.00
2023-04-28T05:17:33.192Z,458.00
2023-04-28T05:18:33.208Z,458.00
2023-04-28T05:19:33.237Z,457.00
2023-04-28T05:20:33.286Z,457.00
2023-04-28T05:21:33.339Z,460.00
2023-04-28T05:22:33.369Z,462.00
2023-04-28T05:23:33.392Z,461.00
2023-04-28T05:24:33.466Z,458.00
2023-04-28T05:25:33.490Z,460.00
2023-04-28T05:26:33.552Z,459.00
2023-04-28T05:27:33.554Z,460.00
2023-04-28T05:28:33.584Z,460.00
2023-04-28T05:29:33.616Z,459.00
2023-04-28T05:30:33.681Z,456.00
2023-04-28T05:31:33.749Z,454.00
2023-04-28T05:32:33.805Z,452.00
2023-04-28T05:33:33.781Z,453.00
2023-04-28T05:34:33.862Z,455.00
2023-04-28T05:35:33.857Z,453.00
2023-04-28T05:36:33.936Z,454.00
2023-04-28T05:37:34.031Z,457.00
2023-04-28T05:38:34.082Z,458.00
2023-04-28T05:39:34.105Z,462.00
2023-04-28T05:40:34.203Z,475.00
2023-04-28T05:41:34.239Z,492.00
2023-04-28T05:42:34.551Z,504.00
2023-04-28T05:43:34.370Z,511.00
2023-04-28T05:44:34.426Z,517.00
2023-04-28T05:45:34.528Z,522.00
2023-04-28T05:46:34.547Z,530.00
2023-04-28T05:47:34.607Z,532.00
2023-04-28T05:48:34.647Z,534.00
2023-04-28T05:49:34.701Z,538.00
2023-04-28T05:50:35.327Z,542.00
2023-04-28T05:51:34.770Z,542.00
2023-04-28T05:52:35.071Z,548.00
2023-04-28T05:53:34.903Z,550.00
2023-04-28T05:54:34.937Z,544.00
2023-04-28T05:55:35.016Z,543.00
2023-04-28T05:56:35.064Z,537.00
2023-04-28T05:57:49.315Z,533.00
2023-04-28T05:58:36.105Z,532.00
2023-04-28T05:59:35.100Z,532.00
2023-04-28T06:00:35.104Z,529.00
2023-04-28T06:01:35.125Z,531.00
2023-04-28T06:02:35.719Z,531.00
2023-04-28T06:03:35.332Z,531.00
2023-04-28T06:04:35.553Z,527.00
2023-04-28T06:05:35.533Z,526.00
2023-04-28T06:06:35.289Z,526.00
2023-04-28T06:07:35.573Z,525.00
2023-04-28T06:08:35.406Z,524.00
2023-04-28T06:09:35.472Z,524.00
2023-04-28T06:10:35.551Z,521.00
2023-04-28T06:11:35.589Z,520.00
2023-04-28T06:12:35.625Z,516.00
2023-04-28T06:13:35.715Z,512.00
2023-04-28T06:14:35.763Z,511.00
2023-04-28T06:15:35.962Z,507.00
2023-04-28T06:16:35.966Z,501.00
2023-04-28T06:17:36.015Z,497.00
2023-04-28T06:18:35.999Z,496.00
2023-04-28T06:19:36.048Z,491.00
2023-04-28T06:20:36.133Z,489.00
2023-04-28T06:21:36.177Z,487.00
2023-04-28T06:22:36.247Z,487.00
2023-04-28T06:23:36.285Z,488.00
2023-04-28T06:24:36.303Z,490.00
2023-04-28T06:25:36.339Z,491.00
2023-04-28T06:26:36.366Z,491.00
2023-04-28T06:27:36.452Z,491.00
2023-04-28T06:28:36.507Z,490.00
2023-04-28T06:29:36.604Z,490.00
2023-04-28T06:30:36.645Z,488.00
2023-04-28T06:31:36.737Z,489.00
2023-04-28T06:32:36.772Z,489.00
2023-04-28T06:33:36.819Z,486.00
2023-04-28T06:34:36.876Z,486.00
2023-04-28T06:35:36.908Z,484.00
2023-04-28T06:36:36.974Z,482.00
2023-04-28T06:37:37.042Z,481.00
2023-04-28T06:38:37.096Z,482.00
2023-04-28T06:39:37.179Z,479.00
2023-04-28T06:40:37.228Z,479.00
2023-04-28T06:41:37.245Z,475.00
2023-04-28T06:42:37.311Z,476.00
2023-04-28T06:43:37.377Z,480.00
2023-04-28T06:44:37.405Z,487.00
2023-04-28T06:45:37.454Z,499.00
2023-04-28T06:46:37.587Z,516.00
2023-04-28T06:47:38.140Z,524.00
2023-04-28T06:48:37.636Z,524.00
2023-04-28T06:49:37.688Z,532.00
2023-04-28T06:50:37.748Z,541.00
2023-04-28T06:51:37.797Z,533.00
2023-04-28T06:52:39.485Z,532.00
2023-04-28T06:53:37.873Z,569.00
2023-04-28T06:54:37.940Z,604.00
2023-04-28T06:55:37.963Z,609.00
2023-04-28T06:56:38.049Z,613.00
2023-04-28T06:57:38.114Z,605.00
2023-04-28T06:58:38.131Z,652.00
2023-04-28T06:59:38.198Z,574.00
2023-04-28T07:00:38.187Z,579.00
2023-04-28T07:01:38.256Z,592.00
2023-04-28T07:02:38.758Z,615.00
2023-04-28T07:03:38.350Z,695.00
2023-04-28T07:04:38.327Z,817.00
2023-04-28T07:05:38.333Z,686.00
2023-04-28T07:06:38.370Z,696.00
2023-04-28T07:07:38.424Z,718.00
2023-04-28T07:08:38.401Z,767.00
2023-04-28T07:09:38.430Z,754.00
2023-04-28T07:10:38.418Z,736.00
2023-04-28T07:11:38.440Z,738.00
2023-04-28T07:12:38.401Z,740.00
2023-04-28T07:13:38.391Z,741.00
2023-04-28T07:14:38.422Z,743.00
2023-04-28T07:15:38.399Z,742.00
2023-04-28T07:16:38.616Z,748.00
2023-04-28T07:17:38.543Z,753.00
2023-04-28T07:18:38.550Z,810.00
2023-04-28T07:19:38.607Z,815.00
2023-04-28T07:20:38.644Z,810.00
2023-04-28T07:21:38.729Z,811.00
2023-04-28T07:22:38.788Z,837.00
2023-04-28T07:23:38.841Z,847.00
2023-04-28T07:24:38.887Z,845.00
2023-04-28T07:25:38.984Z,838.00
2023-04-28T07:26:39.008Z,847.00
2023-04-28T07:27:39.069Z,905.00
2023-04-28T07:28:39.086Z,915.00
2023-04-28T07:29:39.153Z,848.00
2023-04-28T07:30:39.185Z,967.00
2023-04-28T07:31:39.248Z,878.00
2023-04-28T07:32:39.391Z,917.00
2023-04-28T07:33:39.248Z,887.00
2023-04-28T07:34:39.271Z,879.00
2023-04-28T07:35:39.303Z,890.00
2023-04-28T07:36:39.344Z,916.00
2023-04-28T07:37:39.637Z,937.00
2023-04-28T07:38:39.367Z,931.00
2023-04-28T07:39:39.383Z,949.00
2023-04-28T07:40:39.408Z,958.00
2023-04-28T07:41:39.426Z,962.00
2023-04-28T07:42:39.417Z,963.00
2023-04-28T07:43:39.638Z,988.00
2023-04-28T07:44:39.444Z,1009.00
2023-04-28T07:45:39.476Z,996.00
2023-04-28T07:46:39.535Z,995.00
2023-04-28T07:47:39.462Z,993.00
2023-04-28T07:48:39.485Z,995.00
2023-04-28T07:49:39.471Z,983.00
2023-04-28T07:50:39.470Z,1029.00
2023-04-28T07:51:39.477Z,1077.00
2023-04-28T07:52:39.482Z,975.00
2023-04-28T07:53:39.521Z,1116.00
2023-04-28T07:54:39.542Z,1045.00
2023-04-28T07:55:39.491Z,1031.00
2023-04-28T07:56:39.505Z,1040.00
2023-04-28T07:57:39.527Z,1049.00
2023-04-28T07:58:39.540Z,1060.00
2023-04-28T07:59:39.496Z,1078.00
2023-04-28T08:00:41.025Z,1121.00
2023-04-28T08:01:39.575Z,1137.00
2023-04-28T08:02:39.819Z,1162.00
2023-04-28T08:03:39.864Z,1177.00
2023-04-28T08:04:39.863Z,1199.00
2023-04-28T08:05:39.861Z,1214.00
2023-04-28T08:06:39.842Z,1224.00
2023-04-28T08:07:39.845Z,1211.00
2023-04-28T08:08:39.933Z,1212.00
2023-04-28T08:09:41.748Z,1198.00
2023-04-28T08:10:40.076Z,1172.00
2023-04-28T08:11:40.140Z,1159.00
2023-04-28T08:12:40.192Z,1171.00
2023-04-28T08:13:40.244Z,1148.00
2023-04-28T08:14:40.273Z,1125.00
2023-04-28T08:15:40.352Z,1128.00
2023-04-28T08:16:40.360Z,1083.00
2023-04-28T08:17:40.370Z,1077.00
2023-04-28T08:18:40.410Z,1077.00
2023-04-28T08:19:40.327Z,1049.00
2023-04-28T08:20:40.315Z,981.00
2023-04-28T08:21:40.335Z,980.00
2023-04-28T08:22:40.349Z,985.00
2023-04-28T08:23:40.365Z,980.00
2023-04-28T08:24:40.349Z,978.00
2023-04-28T08:25:40.359Z,1006.00
2023-04-28T08:26:40.335Z,1038.00
2023-04-28T08:27:40.369Z,1054.00
2023-04-28T08:28:40.416Z,1084.00
2023-04-28T08:29:40.469Z,1093.00
2023-04-28T08:30:40.517Z,1105.00
2023-04-28T08:31:40.616Z,1109.00
2023-04-28T08:32:40.657Z,1122.00
2023-04-28T08:33:40.648Z,1161.00
2023-04-28T08:34:40.701Z,1229.00
2023-04-28T08:35:40.697Z,1240.00
2023-04-28T08:36:40.722Z,1299.00
2023-04-28T08:37:40.751Z,1312.00
2023-04-28T08:38:40.784Z,1320.00
2023-04-28T08:39:40.801Z,1325.00
2023-04-28T08:40:40.791Z,1340.00
2023-04-28T08:41:40.814Z,1401.00
2023-04-28T08:42:40.861Z,1408.00
2023-04-28T08:43:40.835Z,1423.00
2023-04-28T08:44:40.838Z,1429.00
2023-04-28T08:45:40.934Z,1482.00
2023-04-28T08:46:40.911Z,1479.00
2023-04-28T08:47:40.977Z,1480.00
2023-04-28T08:48:40.944Z,1258.00
2023-04-28T08:49:41.005Z,1160.00
2023-04-28T08:50:40.962Z,1056.00
2023-04-28T08:51:42.242Z,1077.00
2023-04-28T08:52:40.972Z,1180.00
2023-04-28T08:54:08.789Z,1271.00
2023-04-28T08:54:42.059Z,1279.00
2023-04-28T08:55:41.085Z,1340.00
2023-04-28T08:56:41.022Z,1360.00
2023-04-28T08:57:41.469Z,1379.00
2023-04-28T08:58:41.140Z,1454.00
2023-04-28T08:59:40.987Z,1472.00
2023-04-28T09:00:41.011Z,1494.00
2023-04-28T09:01:41.016Z,1516.00
2023-04-28T09:02:41.103Z,1520.00
2023-04-28T09:03:41.214Z,1519.00
2023-04-28T09:04:41.198Z,1539.00
2023-04-28T09:05:41.015Z,1572.00
2023-04-28T09:06:40.991Z,1655.00
2023-04-28T09:07:41.085Z,1677.00
2023-04-28T09:08:40.976Z,1708.00
2023-04-28T09:09:41.010Z,1715.00
2023-04-28T09:10:40.946Z,1726.00
2023-04-28T09:11:40.906Z,1739.00
2023-04-28T09:12:40.961Z,1754.00
2023-04-28T09:13:40.961Z,1829.00
2023-04-28T09:14:41.004Z,1833.00
2023-04-28T09:15:41.049Z,1887.00
2023-04-28T09:16:41.111Z,1954.00
2023-04-28T09:17:41.162Z,1969.00
2023-04-28T09:18:41.227Z,1959.00
2023-04-28T09:19:41.269Z,1982.00
2023-04-28T09:20:41.348Z,2019.00
2023-04-28T09:21:41.382Z,2030.00
2023-04-28T09:22:41.493Z,2058.00
2023-04-28T09:23:41.482Z,2080.00
2023-04-28T09:24:41.543Z,2078.00
2023-04-28T09:25:41.592Z,2097.00
2023-04-28T09:26:41.619Z,2147.00
2023-04-28T09:27:41.677Z,2149.00
2023-04-28T09:28:41.698Z,2167.00
2023-04-28T09:29:41.746Z,2191.00
2023-04-28T09:30:41.793Z,2210.00
2023-04-28T09:31:41.840Z,2221.00
2023-04-28T09:32:41.864Z,2316.00
2023-04-28T09:33:41.882Z,2284.00
2023-04-28T09:34:41.923Z,2291.00
2023-04-28T09:35:41.950Z,2318.00
2023-04-28T09:36:42.008Z,2338.00
2023-04-28T09:37:42.015Z,2366.00
2023-04-28T09:38:42.153Z,2419.00
2023-04-28T09:39:42.032Z,2431.00
2023-04-28T09:40:42.075Z,2481.00
2023-04-28T09:41:42.086Z,2478.00
2023-04-28T09:42:42.094Z,2455.00
2023-04-28T09:43:42.123Z,2464.00
2023-04-28T09:44:42.133Z,2468.00
2023-04-28T09:45:42.226Z,2270.00
2023-04-28T09:46:42.223Z,2216.00
2023-04-28T09:47:42.276Z,2212.00
2023-04-28T09:48:42.703Z,2218.00
2023-04-28T09:49:42.380Z,2313.00
2023-04-28T09:50:42.408Z,2305.00
2023-04-28T09:51:42.475Z,2291.00
2023-04-28T09:52:42.574Z,2290.00
2023-04-28T09:53:42.584Z,2298.00
2023-04-28T09:54:42.629Z,2308.00
2023-04-28T09:55:42.695Z,2319.00
2023-04-28T09:56:42.702Z,2330.00
2023-04-28T09:57:42.713Z,2341.00
2023-04-28T09:58:42.842Z,2352.00
2023-04-28T09:59:42.851Z,2363.00
2023-04-28T10:00:42.905Z,2375.00
2023-04-28T10:01:43.100Z,2388.00
2023-04-28T10:02:44.061Z,2416.00
2023-04-28T10:03:43.272Z,2431.00
2023-04-28T10:04:43.240Z,2436.00
2023-04-28T10:05:43.188Z,2438.00
2023-04-28T10:06:43.119Z,2441.00
2023-04-28T10:07:43.120Z,2437.00
2023-04-28T10:08:43.187Z,2448.00
2023-04-28T10:09:43.208Z,2458.00
2023-04-28T10:10:43.275Z,2470.00
2023-04-28T10:11:43.278Z,2481.00
2023-04-28T10:12:43.381Z,2488.00
2023-04-28T10:13:43.351Z,2496.00
2023-04-28T10:14:43.541Z,2502.00
2023-04-28T10:15:50.434Z,2514.00
2023-04-28T10:16:43.391Z,2528.00
2023-04-28T10:17:43.419Z,2532.00
2023-04-28T10:18:43.365Z,2534.00
2023-04-28T10:19:43.411Z,2537.00
2023-04-28T10:20:43.351Z,2535.00
2023-04-28T10:21:43.316Z,2534.00
2023-04-28T10:22:43.351Z,2543.00
2023-04-28T10:23:43.328Z,2553.00
2023-04-28T10:24:43.369Z,2559.00
2023-04-28T10:25:43.381Z,2559.00
2023-04-28T10:26:44.176Z,2565.00
2023-04-28T10:27:43.302Z,2572.00
2023-04-28T10:28:43.689Z,2578.00
2023-04-28T10:29:43.283Z,2592.00
2023-04-28T10:30:43.287Z,2603.00
2023-04-28T10:31:43.391Z,2613.00
2023-04-28T10:32:43.368Z,2623.00
2023-04-28T10:33:43.256Z,2622.00
2023-04-28T10:34:43.307Z,2631.00
2023-04-28T10:35:43.259Z,2661.00
2023-04-28T10:36:43.241Z,2667.00
2023-04-28T10:37:43.252Z,2555.00
2023-04-28T10:38:43.766Z,2559.00
2023-04-28T10:39:43.260Z,2579.00
2023-04-28T10:40:43.269Z,2580.00
2023-04-28T10:41:43.222Z,2576.00
2023-04-28T10:42:43.209Z,2579.00
2023-04-28T10:43:43.724Z,2582.00
2023-04-28T10:44:43.199Z,2581.00
2023-04-28T10:45:43.165Z,2567.00
2023-04-28T10:46:43.253Z,2565.00
2023-04-28T10:47:43.190Z,2560.00
2023-04-28T10:48:43.190Z,2541.00
2023-04-28T10:49:43.162Z,2526.00
2023-04-28T10:50:43.166Z,2516.00
2023-04-28T10:51:43.187Z,2497.00
2023-04-28T10:52:43.135Z,2485.00
2023-04-28T10:53:43.151Z,2470.00
2023-04-28T10:54:43.158Z,2459.00
2023-04-28T10:55:43.242Z,2458.00
2023-04-28T10:56:43.337Z,2452.00
2023-04-28T10:57:43.327Z,2441.00
2023-04-28T10:58:43.366Z,2347.00
2023-04-28T10:59:43.438Z,2358.00
2023-04-28T11:00:43.510Z,2353.00
2023-04-28T11:01:43.642Z,2344.00
2023-04-28T11:02:44.836Z,2341.00
2023-04-28T11:03:43.803Z,2345.00
2023-04-28T11:04:44.014Z,2262.00
2023-04-28T11:05:43.769Z,2276.00
2023-04-28T11:06:43.843Z,2271.00
2023-04-28T11:07:43.886Z,2276.00
2023-04-28T11:08:43.933Z,2284.00
2023-04-28T11:09:43.958Z,2279.00
2023-04-28T11:10:44.034Z,2266.00
2023-04-28T11:11:44.067Z,2266.00
2023-04-28T11:12:44.145Z,2272.00
2023-04-28T11:13:44.227Z,2279.00
2023-04-28T11:14:44.217Z,2299.00
2023-04-28T11:15:44.278Z,2284.00
2023-04-28T11:16:44.451Z,2249.00
2023-04-28T11:17:44.412Z,2242.00
2023-04-28T11:18:44.481Z,2247.00
2023-04-28T11:19:44.503Z,2258.00
2023-04-28T11:20:44.525Z,2253.00
2023-04-28T11:21:44.596Z,2246.00
2023-04-28T11:22:44.661Z,2228.00
2023-04-28T11:23:44.753Z,2125.00
2023-04-28T11:24:44.797Z,2151.00
2023-04-28T11:25:44.876Z,2112.00
2023-04-28T11:26:44.908Z,2101.00
2023-04-28T11:27:44.993Z,2092.00
2023-04-28T11:28:45.045Z,2102.00
2023-04-28T11:29:45.108Z,2110.00
2023-04-28T11:30:45.155Z,2107.00
2023-04-28T11:31:45.245Z,2108.00
2023-04-28T11:32:45.297Z,2078.00
2023-04-28T11:33:45.733Z,1893.00
2023-04-28T11:34:45.335Z,1778.00
2023-04-28T11:35:45.384Z,1675.00
2023-04-28T11:36:45.403Z,1870.00
2023-04-28T11:37:45.463Z,1985.00
2023-04-28T11:38:45.527Z,2004.00
2023-04-28T11:39:45.555Z,1985.00
2023-04-28T11:40:45.619Z,1985.00
2023-04-28T11:41:45.670Z,1988.00
2023-04-28T11:42:45.677Z,1981.00
2023-04-28T11:43:47.618Z,1988.00
2023-04-28T11:44:45.728Z,1975.00
2023-04-28T11:45:45.832Z,1963.00
2023-04-28T11:46:45.753Z,1953.00
2023-04-28T11:47:45.795Z,1949.00
2023-04-28T11:48:45.773Z,1880.00
2023-04-28T11:49:46.239Z,1836.00
2023-04-28T11:50:45.818Z,1835.00
2023-04-28T11:51:45.842Z,1830.00
2023-04-28T11:52:45.912Z,1830.00
2023-04-28T11:53:45.893Z,1819.00
2023-04-28T11:54:45.933Z,1820.00
2023-04-28T11:55:45.921Z,1822.00
2023-04-28T11:56:45.926Z,1823.00
2023-04-28T11:57:45.948Z,1823.00
2023-04-28T11:58:45.984Z,1823.00
2023-04-28T11:59:46.232Z,1824.00
2023-04-28T12:00:46.034Z,1819.00
2023-04-28T12:01:46.019Z,1813.00
2023-04-28T12:02:46.036Z,1809.00
2023-04-28T12:03:46.083Z,1803.00
2023-04-28T12:04:45.992Z,1800.00
2023-04-28T12:05:46.046Z,1796.00
2023-04-28T12:06:45.999Z,1789.00
2023-04-28T12:07:46.163Z,1786.00
2023-04-28T12:08:45.989Z,1782.00
2023-04-28T12:09:46.010Z,1779.00
2023-04-28T12:10:45.994Z,1772.00
2023-04-28T12:11:46.110Z,1771.00
2023-04-28T12:12:52.082Z,1766.00
2023-04-28T12:13:47.036Z,1763.00
2023-04-28T12:14:46.036Z,1758.00
2023-04-28T12:15:46.041Z,1757.00
2023-04-28T12:16:46.023Z,1756.00
2023-04-28T12:17:46.038Z,1756.00
2023-04-28T12:18:45.995Z,1753.00
2023-04-28T12:19:45.996Z,1750.00
2023-04-28T12:20:45.966Z,1750.00